Rienzi, Mississippi
Current Conditions -  °F | °C
As of 1:35 PM on Sunday 21 Dec 2014 (Local Time) from KCRX Reporting Station
Clear Clear  
Wind Chill: 55°   Ceiling: Unl
Heat Index: 55°   Visibility: 10mi
Dew Point: 34°   Wind: 5mph
Humidity: 44%   Direction: 140°SE
Pressure: 30.06"   Gusts: 12mph
Location:  34.77°N, 88.53°W
Report Text: KCRX 211935Z AUTO 14004G10KT 10SM CLR 13/01 A3006 RMK AO2
Loading
Personal Weather Stations






























Interactive Weather Map New forecast layout! Learn more

10-Day Weather Forecast

Advertisements
Track Severe Weather on mobile